Decoded Metar for CYYL (LYNN LAKE in MB, CANADA) (IATA:YYL) | Meteo·Mobile Aviation Weather
aviador You're here:

CYYL Decoded Metar

LYNN LAKE in MB, CANADA
Report Time2019-03-19 19:00:00
UTC Time2019-03-19 19:21:48
Flight Rules vfr VFR
Wind340° at 15 Gusting to 24 kt
W.Decomp.*RWY 35: 14.3 kt HW 4.6 kt LCW
RWY 26: 4.6 kt HW 14.3 kt RCW
W.Rank340° ranks 8
Current wind is above 340° avg. (8.4)
Visibility9999 m
Phenomena:N/A
Clouds:N/A
Expected CloudBase > 3,200 ft AGL from Temp-Dew spread
CeilingNone
Temp06°C (ISA -7)
Dew Point-2°C (57% RH)
AAT-1.6°C
QNH1009 hPa
Density Alt581 ft
Elevation1,171 ft
Report Wrong Elevation
Raw Report
CYYL 191900Z AUTO 34015G24KT 9SM CLR 06/M02 A2980 RMK SLP111=

Extra information for CYYL:More info

Metar Taf Metar & Taf Last 4 Metars F.Rules Stats Wind Profile Meteogram Temp Stats Airport Information Weather charts Add Link Nearby VenuesMetar ALERT Operation Metar Decoded Social comments